sensor_id;sensor_type;location;lat;lon;timestamp;temperature;humidity
578;DHT22;275;48.492;9.214;2023-04-01T00:01:50;10.30;44.70
578;DHT22;275;48.492;9.214;2023-04-01T00:04:16;9.90;46.30
578;DHT22;275;48.492;9.214;2023-04-01T00:06:43;9.90;46.80
578;DHT22;275;48.492;9.214;2023-04-01T00:09:10;10.10;45.20
578;DHT22;275;48.492;9.214;2023-04-01T00:11:37;10.30;44.70
578;DHT22;275;48.492;9.214;2023-04-01T00:14:07;10.10;45.30
578;DHT22;275;48.492;9.214;2023-04-01T00:16:34;10.20;45.70
578;DHT22;275;48.492;9.214;2023-04-01T00:19:00;10.40;45.20
578;DHT22;275;48.492;9.214;2023-04-01T00:21:27;10.60;44.20
578;DHT22;275;48.492;9.214;2023-04-01T00:23:54;10.80;43.60
578;DHT22;275;48.492;9.214;2023-04-01T00:26:21;10.80;43.20
578;DHT22;275;48.492;9.214;2023-04-01T00:28:48;10.20;44.00
578;DHT22;275;48.492;9.214;2023-04-01T00:31:17;10.00;45.80
578;DHT22;275;48.492;9.214;2023-04-01T00:33:43;10.20;45.00
578;DHT22;275;48.492;9.214;2023-04-01T00:36:12;10.20;44.00
578;DHT22;275;48.492;9.214;2023-04-01T00:38:40;10.20;45.10
578;DHT22;275;48.492;9.214;2023-04-01T00:41:09;10.30;44.50
578;DHT22;275;48.492;9.214;2023-04-01T00:43:39;10.40;45.10
578;DHT22;275;48.492;9.214;2023-04-01T00:46:06;10.20;44.70
578;DHT22;275;48.492;9.214;2023-04-01T00:48:36;10.20;45.00
578;DHT22;275;48.492;9.214;2023-04-01T00:51:06;10.30;45.30
578;DHT22;275;48.492;9.214;2023-04-01T00:53:38;10.00;45.50
578;DHT22;275;48.492;9.214;2023-04-01T00:56:11;9.80;47.30
578;DHT22;275;48.492;9.214;2023-04-01T00:58:42;9.70;47.60
578;DHT22;275;48.492;9.214;2023-04-01T01:01:10;9.90;47.40
578;DHT22;275;48.492;9.214;2023-04-01T01:03:38;10.00;46.10
578;DHT22;275;48.492;9.214;2023-04-01T01:06:11;9.80;46.70
578;DHT22;275;48.492;9.214;2023-04-01T01:09:06;9.90;47.00
578;DHT22;275;48.492;9.214;2023-04-01T01:11:40;10.10;45.10
578;DHT22;275;48.492;9.214;2023-04-01T01:14:14;9.80;47.50
578;DHT22;275;48.492;9.214;2023-04-01T01:16:47;10.10;45.10
578;DHT22;275;48.492;9.214;2023-04-01T01:19:35;9.90;46.10
578;DHT22;275;48.492;9.214;2023-04-01T01:22:28;9.80;46.10
578;DHT22;275;48.492;9.214;2023-04-01T01:25:36;10.10;44.70
578;DHT22;275;48.492;9.214;2023-04-01T01:28:20;10.00;43.80
578;DHT22;275;48.492;9.214;2023-04-01T01:30:58;9.80;45.40
578;DHT22;275;48.492;9.214;2023-04-01T01:33:48;10.00;43.90
578;DHT22;275;48.492;9.214;2023-04-01T01:36:21;10.10;43.70
578;DHT22;275;48.492;9.214;2023-04-01T01:38:48;9.90;44.60
578;DHT22;275;48.492;9.214;2023-04-01T01:41:17;9.70;45.10
578;DHT22;275;48.492;9.214;2023-04-01T01:43:48;9.70;45.30
578;DHT22;275;48.492;9.214;2023-04-01T01:46:27;10.10;43.40
578;DHT22;275;48.492;9.214;2023-04-01T01:48:55;9.70;44.60
578;DHT22;275;48.492;9.214;2023-04-01T01:51:24;9.70;45.10
578;DHT22;275;48.492;9.214;2023-04-01T01:53:53;9.80;44.30
578;DHT22;275;48.492;9.214;2023-04-01T01:56:23;9.50;44.30
578;DHT22;275;48.492;9.214;2023-04-01T01:58:54;9.50;44.70
578;DHT22;275;48.492;9.214;2023-04-01T02:01:24;9.60;44.60
578;DHT22;275;48.492;9.214;2023-04-01T02:03:53;9.70;44.30
578;DHT22;275;48.492;9.214;2023-04-01T02:06:23;10.10;42.70
578;DHT22;275;48.492;9.214;2023-04-01T02:08:54;10.10;42.70
578;DHT22;275;48.492;9.214;2023-04-01T02:11:26;10.10;41.90
578;DHT22;275;48.492;9.214;2023-04-01T02:13:55;9.90;43.50
578;DHT22;275;48.492;9.214;2023-04-01T02:16:26;10.10;42.20
578;DHT22;275;48.492;9.214;2023-04-01T02:18:56;10.20;42.20
578;DHT22;275;48.492;9.214;2023-04-01T02:21:30;9.90;43.50
578;DHT22;275;48.492;9.214;2023-04-01T02:23:58;10.00;42.70
578;DHT22;275;48.492;9.214;2023-04-01T02:26:25;10.10;43.50
578;DHT22;275;48.492;9.214;2023-04-01T02:28:53;9.70;46.30
578;DHT22;275;48.492;9.214;2023-04-01T02:31:20;9.60;47.10
578;DHT22;275;48.492;9.214;2023-04-01T02:33:47;9.90;46.40
578;DHT22;275;48.492;9.214;2023-04-01T02:36:16;9.80;46.70
578;DHT22;275;48.492;9.214;2023-04-01T02:38:45;9.50;46.10
578;DHT22;275;48.492;9.214;2023-04-01T02:41:13;9.50;47.90
578;DHT22;275;48.492;9.214;2023-04-01T02:43:40;9.50;47.40
578;DHT22;275;48.492;9.214;2023-04-01T02:46:06;9.40;48.20
578;DHT22;275;48.492;9.214;2023-04-01T02:48:33;9.40;48.20
578;DHT22;275;48.492;9.214;2023-04-01T02:51:00;9.20;48.80
578;DHT22;275;48.492;9.214;2023-04-01T02:53:27;9.00;49.00
578;DHT22;275;48.492;9.214;2023-04-01T02:55:55;9.00;49.20
578;DHT22;275;48.492;9.214;2023-04-01T02:58:22;9.10;49.40
578;DHT22;275;48.492;9.214;2023-04-01T03:00:49;9.50;46.30
578;DHT22;275;48.492;9.214;2023-04-01T03:03:16;9.10;47.90
578;DHT22;275;48.492;9.214;2023-04-01T03:05:42;9.30;47.00
578;DHT22;275;48.492;9.214;2023-04-01T03:08:09;9.00;47.90
578;DHT22;275;48.492;9.214;2023-04-01T03:10:37;9.00;47.50
578;DHT22;275;48.492;9.214;2023-04-01T03:13:05;8.90;47.50
578;DHT22;275;48.492;9.214;2023-04-01T03:15:32;9.20;47.00
578;DHT22;275;48.492;9.214;2023-04-01T03:17:59;9.60;45.30
578;DHT22;275;48.492;9.214;2023-04-01T03:20:25;8.90;47.40
578;DHT22;275;48.492;9.214;2023-04-01T03:22:52;9.50;46.00
578;DHT22;275;48.492;9.214;2023-04-01T03:25:19;9.30;46.10
578;DHT22;275;48.492;9.214;2023-04-01T03:27:46;8.70;47.70
578;DHT22;275;48.492;9.214;2023-04-01T03:30:14;8.50;48.00
578;DHT22;275;48.492;9.214;2023-04-01T03:32:41;8.50;48.60
578;DHT22;275;48.492;9.214;2023-04-01T03:35:08;8.80;47.70
578;DHT22;275;48.492;9.214;2023-04-01T03:37:36;8.60;47.60
578;DHT22;275;48.492;9.214;2023-04-01T03:40:03;8.70;46.80
578;DHT22;275;48.492;9.214;2023-04-01T03:42:31;8.50;47.50
578;DHT22;275;48.492;9.214;2023-04-01T03:44:57;8.90;46.10
578;DHT22;275;48.492;9.214;2023-04-01T03:47:26;8.90;46.30
578;DHT22;275;48.492;9.214;2023-04-01T03:49:53;8.80;46.10
578;DHT22;275;48.492;9.214;2023-04-01T03:52:19;8.80;45.70
578;DHT22;275;48.492;9.214;2023-04-01T03:54:46;9.30;44.30
578;DHT22;275;48.492;9.214;2023-04-01T03:57:13;9.60;43.20
578;DHT22;275;48.492;9.214;2023-04-01T03:59:40;9.90;42.20
578;DHT22;275;48.492;9.214;2023-04-01T04:02:07;9.60;42.80
578;DHT22;275;48.492;9.214;2023-04-01T04:04:35;9.20;44.40
578;DHT22;275;48.492;9.214;2023-04-01T04:07:02;9.00;44.70
578;DHT22;275;48.492;9.214;2023-04-01T04:09:30;9.00;45.90
578;DHT22;275;48.492;9.214;2023-04-01T04:11:57;9.30;45.70
578;DHT22;275;48.492;9.214;2023-04-01T04:14:24;9.40;44.90
578;DHT22;275;48.492;9.214;2023-04-01T04:16:51;9.20;45.40
578;DHT22;275;48.492;9.214;2023-04-01T04:19:18;9.30;45.40
578;DHT22;275;48.492;9.214;2023-04-01T04:21:46;9.20;45.50
578;DHT22;275;48.492;9.214;2023-04-01T04:24:12;9.20;45.50
578;DHT22;275;48.492;9.214;2023-04-01T04:26:39;8.90;46.50
578;DHT22;275;48.492;9.214;2023-04-01T04:29:06;9.20;46.20
578;DHT22;275;48.492;9.214;2023-04-01T04:31:33;9.40;45.50
578;DHT22;275;48.492;9.214;2023-04-01T04:34:00;9.30;46.00
578;DHT22;275;48.492;9.214;2023-04-01T04:36:27;9.10;46.80
578;DHT22;275;48.492;9.214;2023-04-01T04:38:55;9.10;46.40
578;DHT22;275;48.492;9.214;2023-04-01T04:41:23;9.20;46.00
578;DHT22;275;48.492;9.214;2023-04-01T04:43:53;9.40;45.30
578;DHT22;275;48.492;9.214;2023-04-01T04:46:20;9.30;45.40
578;DHT22;275;48.492;9.214;2023-04-01T04:48:48;9.10;45.70
578;DHT22;275;48.492;9.214;2023-04-01T04:51:15;9.00;45.90
578;DHT22;275;48.492;9.214;2023-04-01T04:53:42;9.00;46.50
578;DHT22;275;48.492;9.214;2023-04-01T04:56:10;9.20;45.70
578;DHT22;275;48.492;9.214;2023-04-01T04:58:38;9.10;45.30
578;DHT22;275;48.492;9.214;2023-04-01T05:01:07;9.00;45.90
578;DHT22;275;48.492;9.214;2023-04-01T05:03:34;9.10;45.10
578;DHT22;275;48.492;9.214;2023-04-01T05:06:01;8.90;46.10
578;DHT22;275;48.492;9.214;2023-04-01T05:08:28;9.30;44.50
578;DHT22;275;48.492;9.214;2023-04-01T05:10:55;9.20;44.70
578;DHT22;275;48.492;9.214;2023-04-01T05:13:23;9.20;43.90
578;DHT22;275;48.492;9.214;2023-04-01T05:15:50;9.30;44.20
578;DHT22;275;48.492;9.214;2023-04-01T05:18:17;9.40;43.90
578;DHT22;275;48.492;9.214;2023-04-01T05:20:47;9.50;43.50
578;DHT22;275;48.492;9.214;2023-04-01T05:23:14;9.60;43.30
578;DHT22;275;48.492;9.214;2023-04-01T05:25:42;9.60;43.30
578;DHT22;275;48.492;9.214;2023-04-01T05:28:10;9.30;43.90
578;DHT22;275;48.492;9.214;2023-04-01T05:30:39;9.10;44.00
578;DHT22;275;48.492;9.214;2023-04-01T05:33:06;9.40;43.90
578;DHT22;275;48.492;9.214;2023-04-01T05:35:33;9.40;43.20
578;DHT22;275;48.492;9.214;2023-04-01T05:38:00;9.30;43.90
578;DHT22;275;48.492;9.214;2023-04-01T05:40:27;10.10;41.30
578;DHT22;275;48.492;9.214;2023-04-01T05:42:54;10.10;40.80
578;DHT22;275;48.492;9.214;2023-04-01T05:45:21;9.50;42.50
578;DHT22;275;48.492;9.214;2023-04-01T05:47:50;9.60;42.60
578;DHT22;275;48.492;9.214;2023-04-01T05:50:17;9.50;42.20
578;DHT22;275;48.492;9.214;2023-04-01T05:52:44;10.00;40.60
578;DHT22;275;48.492;9.214;2023-04-01T05:55:11;10.20;39.40
578;DHT22;275;48.492;9.214;2023-04-01T05:57:38;9.80;41.30
578;DHT22;275;48.492;9.214;2023-04-01T06:00:06;9.60;42.20
578;DHT22;275;48.492;9.214;2023-04-01T06:02:33;10.00;40.70
578;DHT22;275;48.492;9.214;2023-04-01T06:05:12;10.10;40.30
578;DHT22;275;48.492;9.214;2023-04-01T06:07:40;10.20;40.30
578;DHT22;275;48.492;9.214;2023-04-01T06:10:13;10.40;39.60
578;DHT22;275;48.492;9.214;2023-04-01T06:12:48;10.40;40.00
578;DHT22;275;48.492;9.214;2023-04-01T06:15:29;10.70;39.20
578;DHT22;275;48.492;9.214;2023-04-01T06:21:27;10.50;39.50
578;DHT22;275;48.492;9.214;2023-04-01T06:24:05;10.80;39.20
578;DHT22;275;48.492;9.214;2023-04-01T06:26:37;10.80;38.60
578;DHT22;275;48.492;9.214;2023-04-01T06:29:24;10.80;38.60
578;DHT22;275;48.492;9.214;2023-04-01T06:32:21;10.80;38.80
578;DHT22;275;48.492;9.214;2023-04-01T06:35:15;10.80;38.60
578;DHT22;275;48.492;9.214;2023-04-01T06:38:11;10.20;40.00
578;DHT22;275;48.492;9.214;2023-04-01T06:41:06;10.40;39.20
578;DHT22;275;48.492;9.214;2023-04-01T06:43:47;10.30;39.50
578;DHT22;275;48.492;9.214;2023-04-01T06:46:19;10.50;39.20
578;DHT22;275;48.492;9.214;2023-04-01T06:48:59;10.80;38.30
578;DHT22;275;48.492;9.214;2023-04-01T06:51:34;10.50;39.40
578;DHT22;275;48.492;9.214;2023-04-01T06:54:11;10.80;38.80
578;DHT22;275;48.492;9.214;2023-04-01T06:56:41;10.60;39.00
578;DHT22;275;48.492;9.214;2023-04-01T06:59:13;10.60;38.70
578;DHT22;275;48.492;9.214;2023-04-01T07:01:44;10.70;38.50
578;DHT22;275;48.492;9.214;2023-04-01T07:04:14;11.00;38.10
578;DHT22;275;48.492;9.214;2023-04-01T07:06:46;10.80;38.70
578;DHT22;275;48.492;9.214;2023-04-01T07:09:18;11.10;38.50
578;DHT22;275;48.492;9.214;2023-04-01T07:11:46;10.90;37.70
578;DHT22;275;48.492;9.214;2023-04-01T07:14:19;10.80;38.60
578;DHT22;275;48.492;9.214;2023-04-01T07:16:51;10.80;37.90
578;DHT22;275;48.492;9.214;2023-04-01T07:19:22;10.80;38.50
578;DHT22;275;48.492;9.214;2023-04-01T07:21:56;10.70;39.20
578;DHT22;275;48.492;9.214;2023-04-01T07:24:29;11.00;38.60
578;DHT22;275;48.492;9.214;2023-04-01T07:26:58;10.90;38.70
578;DHT22;275;48.492;9.214;2023-04-01T07:29:26;10.60;39.20
578;DHT22;275;48.492;9.214;2023-04-01T07:32:05;10.30;39.90
578;DHT22;275;48.492;9.214;2023-04-01T07:34:37;10.60;39.90
578;DHT22;275;48.492;9.214;2023-04-01T07:37:12;11.00;38.70
578;DHT22;275;48.492;9.214;2023-04-01T07:39:48;11.70;37.10
578;DHT22;275;48.492;9.214;2023-04-01T07:42:26;11.40;37.40
578;DHT22;275;48.492;9.214;2023-04-01T07:45:01;11.70;37.10
578;DHT22;275;48.492;9.214;2023-04-01T07:47:41;11.60;36.80
578;DHT22;275;48.492;9.214;2023-04-01T07:50:19;11.30;36.60
578;DHT22;275;48.492;9.214;2023-04-01T07:52:59;11.30;37.70
578;DHT22;275;48.492;9.214;2023-04-01T07:55:35;11.20;37.50
578;DHT22;275;48.492;9.214;2023-04-01T07:58:11;11.30;36.90
578;DHT22;275;48.492;9.214;2023-04-01T08:00:44;11.50;37.10
578;DHT22;275;48.492;9.214;2023-04-01T08:03:38;11.30;36.30
578;DHT22;275;48.492;9.214;2023-04-01T08:06:12;10.90;37.40
578;DHT22;275;48.492;9.214;2023-04-01T08:08:49;11.40;36.30
578;DHT22;275;48.492;9.214;2023-04-01T08:11:28;11.30;36.60
578;DHT22;275;48.492;9.214;2023-04-01T08:14:04;11.50;36.20
578;DHT22;275;48.492;9.214;2023-04-01T08:16:39;11.40;36.20
578;DHT22;275;48.492;9.214;2023-04-01T08:19:21;11.00;37.50
578;DHT22;275;48.492;9.214;2023-04-01T08:21:52;10.90;37.10
578;DHT22;275;48.492;9.214;2023-04-01T08:24:26;11.10;37.50
578;DHT22;275;48.492;9.214;2023-04-01T08:26:57;11.50;37.80
578;DHT22;275;48.492;9.214;2023-04-01T08:29:31;11.70;36.30
578;DHT22;275;48.492;9.214;2023-04-01T08:32:06;11.10;37.70
578;DHT22;275;48.492;9.214;2023-04-01T08:34:38;11.20;38.20
578;DHT22;275;48.492;9.214;2023-04-01T08:37:09;11.60;38.00
578;DHT22;275;48.492;9.214;2023-04-01T08:39:40;10.80;38.20
578;DHT22;275;48.492;9.214;2023-04-01T08:42:39;10.90;37.70
578;DHT22;275;48.492;9.214;2023-04-01T08:45:21;11.20;38.20
578;DHT22;275;48.492;9.214;2023-04-01T08:50:53;11.30;37.60
578;DHT22;275;48.492;9.214;2023-04-01T08:53:37;11.40;37.20
578;DHT22;275;48.492;9.214;2023-04-01T08:56:12;11.10;37.70
578;DHT22;275;48.492;9.214;2023-04-01T09:02:12;11.80;35.90
578;DHT22;275;48.492;9.214;2023-04-01T09:05:02;11.50;36.80
578;DHT22;275;48.492;9.214;2023-04-01T09:07:43;11.20;37.50
578;DHT22;275;48.492;9.214;2023-04-01T09:10:28;11.10;38.80
578;DHT22;275;48.492;9.214;2023-04-01T09:13:10;11.00;39.90
578;DHT22;275;48.492;9.214;2023-04-01T09:15:53;11.00;40.30
578;DHT22;275;48.492;9.214;2023-04-01T09:21:56;10.60;42.30
578;DHT22;275;48.492;9.214;2023-04-01T09:24:43;10.90;43.10
578;DHT22;275;48.492;9.214;2023-04-01T09:27:18;11.30;40.70
578;DHT22;275;48.492;9.214;2023-04-01T09:30:17;11.00;41.50
578;DHT22;275;48.492;9.214;2023-04-01T09:33:28;11.30;41.70
578;DHT22;275;48.492;9.214;2023-04-01T09:36:09;11.30;40.60
578;DHT22;275;48.492;9.214;2023-04-01T09:38:53;11.00;41.00
578;DHT22;275;48.492;9.214;2023-04-01T09:41:28;11.00;41.80
578;DHT22;275;48.492;9.214;2023-04-01T09:44:02;10.70;41.90
578;DHT22;275;48.492;9.214;2023-04-01T09:46:42;11.00;42.90
578;DHT22;275;48.492;9.214;2023-04-01T09:49:33;10.60;43.80
578;DHT22;275;48.492;9.214;2023-04-01T09:52:18;11.10;43.00
578;DHT22;275;48.492;9.214;2023-04-01T09:54:59;10.90;42.90
578;DHT22;275;48.492;9.214;2023-04-01T10:00:55;11.70;41.70
578;DHT22;275;48.492;9.214;2023-04-01T10:03:54;12.00;40.30
578;DHT22;275;48.492;9.214;2023-04-01T10:07:01;12.00;39.80
578;DHT22;275;48.492;9.214;2023-04-01T10:15:55;11.10;42.90
578;DHT22;275;48.492;9.214;2023-04-01T10:18:50;11.20;43.00
578;DHT22;275;48.492;9.214;2023-04-01T10:21:37;10.50;44.60
578;DHT22;275;48.492;9.214;2023-04-01T10:24:32;10.80;45.30
578;DHT22;275;48.492;9.214;2023-04-01T10:27:20;10.80;44.40
578;DHT22;275;48.492;9.214;2023-04-01T10:33:38;10.90;44.60
578;DHT22;275;48.492;9.214;2023-04-01T10:36:43;11.00;44.40
578;DHT22;275;48.492;9.214;2023-04-01T10:39:35;10.50;45.00
578;DHT22;275;48.492;9.214;2023-04-01T10:45:32;11.40;43.50
578;DHT22;275;48.492;9.214;2023-04-01T10:48:13;11.10;43.10
578;DHT22;275;48.492;9.214;2023-04-01T10:51:16;10.60;44.50
578;DHT22;275;48.492;9.214;2023-04-01T10:54:15;10.70;43.90
578;DHT22;275;48.492;9.214;2023-04-01T10:56:51;11.30;42.60
578;DHT22;275;48.492;9.214;2023-04-01T10:59:43;11.00;42.90
578;DHT22;275;48.492;9.214;2023-04-01T11:02:52;11.30;42.80
578;DHT22;275;48.492;9.214;2023-04-01T11:05:42;12.50;41.00
578;DHT22;275;48.492;9.214;2023-04-01T11:14:38;11.40;41.60
578;DHT22;275;48.492;9.214;2023-04-01T11:17:33;11.20;43.50
578;DHT22;275;48.492;9.214;2023-04-01T11:20:28;11.60;42.50
578;DHT22;275;48.492;9.214;2023-04-01T11:26:21;11.90;41.90
578;DHT22;275;48.492;9.214;2023-04-01T11:29:07;12.20;40.90
578;DHT22;275;48.492;9.214;2023-04-01T11:31:46;11.50;42.00
578;DHT22;275;48.492;9.214;2023-04-01T11:34:33;11.50;44.40
578;DHT22;275;48.492;9.214;2023-04-01T11:37:09;11.00;44.90
578;DHT22;275;48.492;9.214;2023-04-01T11:39:45;11.30;44.40
578;DHT22;275;48.492;9.214;2023-04-01T11:42:24;11.20;43.60
578;DHT22;275;48.492;9.214;2023-04-01T11:45:01;12.10;43.00
578;DHT22;275;48.492;9.214;2023-04-01T11:47:52;12.20;41.40
578;DHT22;275;48.492;9.214;2023-04-01T11:50:31;11.40;43.40
578;DHT22;275;48.492;9.214;2023-04-01T11:53:13;11.50;43.20
578;DHT22;275;48.492;9.214;2023-04-01T11:55:53;11.60;42.00
578;DHT22;275;48.492;9.214;2023-04-01T11:58:41;12.20;40.70
578;DHT22;275;48.492;9.214;2023-04-01T12:01:24;12.40;41.10
578;DHT22;275;48.492;9.214;2023-04-01T12:04:19;12.10;41.80
578;DHT22;275;48.492;9.214;2023-04-01T12:06:57;11.60;42.40
578;DHT22;275;48.492;9.214;2023-04-01T12:09:34;11.90;41.00
578;DHT22;275;48.492;9.214;2023-04-01T12:12:13;12.20;41.80
578;DHT22;275;48.492;9.214;2023-04-01T12:14:47;12.60;41.90
578;DHT22;275;48.492;9.214;2023-04-01T12:17:27;12.50;40.80
578;DHT22;275;48.492;9.214;2023-04-01T12:20:01;11.80;43.30
578;DHT22;275;48.492;9.214;2023-04-01T12:22:46;11.50;44.20
578;DHT22;275;48.492;9.214;2023-04-01T12:25:29;11.80;44.90
578;DHT22;275;48.492;9.214;2023-04-01T12:28:09;12.30;43.80
578;DHT22;275;48.492;9.214;2023-04-01T12:30:47;11.80;44.70
578;DHT22;275;48.492;9.214;2023-04-01T12:33:35;11.80;44.30
578;DHT22;275;48.492;9.214;2023-04-01T12:36:19;12.20;44.20
578;DHT22;275;48.492;9.214;2023-04-01T12:39:07;13.00;41.80
578;DHT22;275;48.492;9.214;2023-04-01T12:41:44;12.10;43.40
578;DHT22;275;48.492;9.214;2023-04-01T12:50:28;12.50;41.90
578;DHT22;275;48.492;9.214;2023-04-01T12:53:36;12.00;42.00
578;DHT22;275;48.492;9.214;2023-04-01T12:56:14;12.10;42.20
578;DHT22;275;48.492;9.214;2023-04-01T12:59:26;12.00;42.00
578;DHT22;275;48.492;9.214;2023-04-01T13:02:08;12.70;41.30
578;DHT22;275;48.492;9.214;2023-04-01T13:05:01;13.20;39.00
578;DHT22;275;48.492;9.214;2023-04-01T13:07:53;11.90;41.20
578;DHT22;275;48.492;9.214;2023-04-01T13:10:43;12.00;43.60
578;DHT22;275;48.492;9.214;2023-04-01T13:13:55;12.00;40.80
578;DHT22;275;48.492;9.214;2023-04-01T13:16:27;12.30;39.60
578;DHT22;275;48.492;9.214;2023-04-01T13:18:59;12.40;39.00
578;DHT22;275;48.492;9.214;2023-04-01T13:21:38;12.00;39.60
578;DHT22;275;48.492;9.214;2023-04-01T13:24:11;12.20;39.60
578;DHT22;275;48.492;9.214;2023-04-01T13:26:50;12.50;37.10
578;DHT22;275;48.492;9.214;2023-04-01T13:29:23;12.20;38.30
578;DHT22;275;48.492;9.214;2023-04-01T13:32:02;11.80;38.90
578;DHT22;275;48.492;9.214;2023-04-01T13:34:44;12.60;37.90
578;DHT22;275;48.492;9.214;2023-04-01T13:37:25;12.90;37.00
578;DHT22;275;48.492;9.214;2023-04-01T13:40:02;13.50;36.10
578;DHT22;275;48.492;9.214;2023-04-01T13:42:43;13.10;36.50
578;DHT22;275;48.492;9.214;2023-04-01T13:45:23;12.70;36.90
578;DHT22;275;48.492;9.214;2023-04-01T13:51:13;12.30;37.40
578;DHT22;275;48.492;9.214;2023-04-01T13:56:48;12.40;37.90
578;DHT22;275;48.492;9.214;2023-04-01T13:59:35;12.10;38.80
578;DHT22;275;48.492;9.214;2023-04-01T14:02:19;11.80;39.80
578;DHT22;275;48.492;9.214;2023-04-01T14:05:01;12.20;38.90
578;DHT22;275;48.492;9.214;2023-04-01T14:07:40;12.10;38.40
578;DHT22;275;48.492;9.214;2023-04-01T14:10:28;12.00;38.60
578;DHT22;275;48.492;9.214;2023-04-01T14:13:01;11.90;39.50
578;DHT22;275;48.492;9.214;2023-04-01T14:15:42;12.10;38.20
578;DHT22;275;48.492;9.214;2023-04-01T14:18:32;12.40;38.60
578;DHT22;275;48.492;9.214;2023-04-01T14:21:08;12.80;36.90
578;DHT22;275;48.492;9.214;2023-04-01T14:23:56;12.70;36.10
578;DHT22;275;48.492;9.214;2023-04-01T14:29:52;12.10;37.30
578;DHT22;275;48.492;9.214;2023-04-01T14:32:28;12.00;38.20
578;DHT22;275;48.492;9.214;2023-04-01T14:35:22;12.30;37.10
578;DHT22;275;48.492;9.214;2023-04-01T14:38:25;12.00;37.20
578;DHT22;275;48.492;9.214;2023-04-01T14:41:02;11.90;38.20
578;DHT22;275;48.492;9.214;2023-04-01T14:43:49;12.20;37.50
578;DHT22;275;48.492;9.214;2023-04-01T14:49:21;13.00;35.80
578;DHT22;275;48.492;9.214;2023-04-01T14:51:52;12.60;36.20
578;DHT22;275;48.492;9.214;2023-04-01T14:54:21;12.30;37.40
578;DHT22;275;48.492;9.214;2023-04-01T14:57:04;12.10;37.90
578;DHT22;275;48.492;9.214;2023-04-01T14:59:32;12.50;37.50
578;DHT22;275;48.492;9.214;2023-04-01T15:02:02;13.00;36.10
578;DHT22;275;48.492;9.214;2023-04-01T15:04:52;12.30;37.20
578;DHT22;275;48.492;9.214;2023-04-01T15:07:52;11.90;37.90
578;DHT22;275;48.492;9.214;2023-04-01T15:13:48;12.50;37.00
578;DHT22;275;48.492;9.214;2023-04-01T15:16:22;12.60;37.20
578;DHT22;275;48.492;9.214;2023-04-01T15:19:00;12.60;37.70
578;DHT22;275;48.492;9.214;2023-04-01T15:21:49;13.20;36.30
578;DHT22;275;48.492;9.214;2023-04-01T15:24:22;13.80;36.20
578;DHT22;275;48.492;9.214;2023-04-01T15:27:14;13.80;35.30
578;DHT22;275;48.492;9.214;2023-04-01T15:30:00;13.10;36.50
578;DHT22;275;48.492;9.214;2023-04-01T15:32:39;13.00;36.40
578;DHT22;275;48.492;9.214;2023-04-01T15:35:23;13.40;35.70
578;DHT22;275;48.492;9.214;2023-04-01T15:37:56;12.70;36.90
578;DHT22;275;48.492;9.214;2023-04-01T15:40:30;12.20;37.90
578;DHT22;275;48.492;9.214;2023-04-01T15:43:18;12.50;37.80
578;DHT22;275;48.492;9.214;2023-04-01T15:45:55;13.40;36.00
578;DHT22;275;48.492;9.214;2023-04-01T15:48:32;13.50;35.70
578;DHT22;275;48.492;9.214;2023-04-01T15:51:12;12.30;37.30
578;DHT22;275;48.492;9.214;2023-04-01T15:53:51;12.00;37.70
578;DHT22;275;48.492;9.214;2023-04-01T15:56:45;11.70;38.70
578;DHT22;275;48.492;9.214;2023-04-01T15:59:30;12.00;37.90
578;DHT22;275;48.492;9.214;2023-04-01T16:02:01;11.90;37.40
578;DHT22;275;48.492;9.214;2023-04-01T16:04:54;12.10;37.50
578;DHT22;275;48.492;9.214;2023-04-01T16:07:38;12.90;35.70
578;DHT22;275;48.492;9.214;2023-04-01T16:10:17;13.20;35.20
578;DHT22;275;48.492;9.214;2023-04-01T16:13:02;13.20;35.00
578;DHT22;275;48.492;9.214;2023-04-01T16:15:39;12.80;35.40
578;DHT22;275;48.492;9.214;2023-04-01T16:18:17;12.30;36.10
578;DHT22;275;48.492;9.214;2023-04-01T16:20:52;12.20;36.70
578;DHT22;275;48.492;9.214;2023-04-01T16:23:26;11.70;37.60
578;DHT22;275;48.492;9.214;2023-04-01T16:26:03;11.80;37.90
578;DHT22;275;48.492;9.214;2023-04-01T16:28:38;12.00;36.80
578;DHT22;275;48.492;9.214;2023-04-01T16:31:10;12.20;37.10
578;DHT22;275;48.492;9.214;2023-04-01T16:33:45;12.60;35.20
578;DHT22;275;48.492;9.214;2023-04-01T16:36:23;12.40;35.70
578;DHT22;275;48.492;9.214;2023-04-01T16:39:06;11.90;36.90
578;DHT22;275;48.492;9.214;2023-04-01T16:41:36;12.20;36.50
578;DHT22;275;48.492;9.214;2023-04-01T16:44:18;12.00;36.80
578;DHT22;275;48.492;9.214;2023-04-01T16:46:47;12.20;36.80
578;DHT22;275;48.492;9.214;2023-04-01T16:49:30;13.10;35.00
578;DHT22;275;48.492;9.214;2023-04-01T16:52:13;13.40;34.20
578;DHT22;275;48.492;9.214;2023-04-01T16:54:44;13.00;34.80
578;DHT22;275;48.492;9.214;2023-04-01T16:57:19;13.00;35.20
578;DHT22;275;48.492;9.214;2023-04-01T16:59:54;13.20;34.50
578;DHT22;275;48.492;9.214;2023-04-01T17:02:27;12.60;35.80
578;DHT22;275;48.492;9.214;2023-04-01T17:05:00;13.00;35.70
578;DHT22;275;48.492;9.214;2023-04-01T17:07:38;13.50;34.40
578;DHT22;275;48.492;9.214;2023-04-01T17:10:44;13.10;34.90
578;DHT22;275;48.492;9.214;2023-04-01T17:13:34;13.20;34.80
578;DHT22;275;48.492;9.214;2023-04-01T17:16:24;13.40;34.50
578;DHT22;275;48.492;9.214;2023-04-01T17:19:04;13.50;34.20
578;DHT22;275;48.492;9.214;2023-04-01T17:21:46;13.40;34.50
578;DHT22;275;48.492;9.214;2023-04-01T17:24:27;13.50;34.00
578;DHT22;275;48.492;9.214;2023-04-01T17:27:00;14.10;33.10
578;DHT22;275;48.492;9.214;2023-04-01T17:29:35;14.60;31.90
578;DHT22;275;48.492;9.214;2023-04-01T17:32:11;13.50;33.80
578;DHT22;275;48.492;9.214;2023-04-01T17:34:51;12.70;35.90
578;DHT22;275;48.492;9.214;2023-04-01T17:37:28;12.50;35.80
578;DHT22;275;48.492;9.214;2023-04-01T17:40:06;12.50;36.30
578;DHT22;275;48.492;9.214;2023-04-01T17:42:41;12.70;36.00
578;DHT22;275;48.492;9.214;2023-04-01T17:45:11;12.90;34.40
578;DHT22;275;48.492;9.214;2023-04-01T17:47:52;12.20;35.90
578;DHT22;275;48.492;9.214;2023-04-01T17:50:30;12.30;36.30
578;DHT22;275;48.492;9.214;2023-04-01T17:53:12;12.70;35.60
578;DHT22;275;48.492;9.214;2023-04-01T17:55:55;13.30;34.10
578;DHT22;275;48.492;9.214;2023-04-01T17:58:30;13.10;34.60
578;DHT22;275;48.492;9.214;2023-04-01T18:01:18;13.00;34.60
578;DHT22;275;48.492;9.214;2023-04-01T18:04:08;13.00;35.10
578;DHT22;275;48.492;9.214;2023-04-01T18:06:47;13.40;34.40
578;DHT22;275;48.492;9.214;2023-04-01T18:09:32;13.10;34.10
578;DHT22;275;48.492;9.214;2023-04-01T18:12:12;12.50;36.10
578;DHT22;275;48.492;9.214;2023-04-01T18:14:59;12.60;36.10
578;DHT22;275;48.492;9.214;2023-04-01T18:17:41;12.50;36.30
578;DHT22;275;48.492;9.214;2023-04-01T18:20:24;12.50;35.90
578;DHT22;275;48.492;9.214;2023-04-01T18:22:56;12.10;37.00
578;DHT22;275;48.492;9.214;2023-04-01T18:25:29;12.40;35.90
578;DHT22;275;48.492;9.214;2023-04-01T18:28:18;12.60;35.80
578;DHT22;275;48.492;9.214;2023-04-01T18:30:52;12.20;36.00
578;DHT22;275;48.492;9.214;2023-04-01T18:33:25;11.90;37.10
578;DHT22;275;48.492;9.214;2023-04-01T18:36:07;11.90;37.20
578;DHT22;275;48.492;9.214;2023-04-01T18:38:37;12.30;36.10
578;DHT22;275;48.492;9.214;2023-04-01T18:41:14;12.00;36.60
578;DHT22;275;48.492;9.214;2023-04-01T18:43:48;12.10;36.60